createdAt,value
2016-07-12T14:02:49.180Z,190
2016-07-12T14:03:45.458Z,190
2016-07-12T14:04:44.748Z,190
2016-07-12T14:05:46.231Z,190
2016-07-12T14:06:44.730Z,190
2016-07-12T14:07:46.074Z,190
2016-07-12T14:08:44.753Z,190
2016-07-12T14:09:44.839Z,195
2016-07-12T14:10:59.963Z,230
2016-07-12T14:11:46.779Z,230
2016-07-12T14:12:46.376Z,230
2016-07-12T14:13:44.935Z,225
2016-07-12T14:14:46.850Z,215
2016-07-12T14:15:44.931Z,210
2016-07-12T14:16:45.743Z,210
2016-07-12T14:17:46.256Z,205
2016-07-12T14:18:44.800Z,205
2016-07-12T14:19:45.578Z,185
2016-07-12T14:20:44.676Z,215
2016-07-12T14:21:46.885Z,230
2016-07-12T14:22:45.034Z,225
2016-07-12T14:23:48.706Z,215
2016-07-12T14:24:45.019Z,215
2016-07-12T14:25:49.725Z,220
2016-07-12T14:26:46.589Z,215
2016-07-12T14:27:44.944Z,205
2016-07-12T14:28:46.733Z,205
2016-07-12T14:29:50.299Z,205
2016-07-12T14:30:45.302Z,210
2016-07-12T14:31:45.439Z,210
2016-07-12T14:32:46.845Z,205
2016-07-12T14:33:48.437Z,210
2016-07-12T14:34:45.214Z,215
2016-07-12T14:35:44.749Z,220
2016-07-12T14:36:45.873Z,210
2016-07-12T14:37:45.682Z,215
2016-07-12T14:38:45.717Z,235
2016-07-12T14:39:45.006Z,250
2016-07-12T14:40:45.156Z,270
2016-07-12T14:41:46.199Z,245
2016-07-12T14:42:45.162Z,225
2016-07-12T14:43:45.272Z,225
2016-07-12T14:44:45.020Z,220
2016-07-12T14:45:45.950Z,220
2016-07-12T14:46:44.957Z,220
2016-07-12T14:47:45.758Z,230
2016-07-12T14:48:46.572Z,265
2016-07-12T14:49:45.534Z,300
2016-07-12T14:50:45.525Z,310
2016-07-12T14:51:45.895Z,310
2016-07-12T14:52:45.610Z,295
2016-07-12T14:53:45.851Z,285
2016-07-12T14:54:45.906Z,275
2016-07-12T14:55:45.870Z,260
2016-07-12T14:56:45.875Z,240
2016-07-12T14:57:46.221Z,230
2016-07-12T14:58:45.173Z,220
2016-07-12T14:59:46.065Z,215
2016-07-12T15:00:45.194Z,220
2016-07-12T15:01:45.122Z,240
2016-07-12T15:02:45.770Z,230
2016-07-12T15:04:00.362Z,215
2016-07-12T15:04:46.523Z,205
2016-07-12T15:07:45.441Z,205
2016-07-12T15:08:46.242Z,200
2016-07-12T15:09:45.469Z,200
2016-07-12T15:10:48.368Z,195
2016-07-12T15:11:48.873Z,195
2016-07-12T15:12:45.428Z,195
2016-07-12T15:13:46.345Z,195
2016-07-12T15:14:45.546Z,200
2016-07-12T15:15:45.500Z,195
2016-07-12T15:16:45.531Z,200
2016-07-12T15:17:45.502Z,200
2016-07-12T15:18:45.459Z,200
2016-07-12T15:19:45.450Z,205
2016-07-12T15:20:46.466Z,205
2016-07-12T15:21:45.616Z,200
2016-07-12T15:22:45.619Z,200
2016-07-12T15:23:45.435Z,200
2016-07-12T15:24:45.667Z,195
2016-07-12T15:25:45.678Z,195
2016-07-12T15:26:46.335Z,190
2016-07-12T15:27:50.196Z,190
2016-07-12T15:28:45.567Z,190
2016-07-12T15:29:45.566Z,190
2016-07-12T15:30:45.667Z,195
2016-07-12T15:31:46.460Z,185
2016-07-12T15:32:46.477Z,185
2016-07-12T15:33:45.779Z,185
2016-07-12T15:34:45.766Z,185
2016-07-12T15:35:46.471Z,185
2016-07-12T15:36:45.767Z,185
2016-07-12T15:37:45.796Z,185
2016-07-12T15:38:45.709Z,180
2016-07-12T15:39:45.786Z,180
2016-07-12T15:40:46.571Z,180
2016-07-12T15:41:45.825Z,180
2016-07-12T15:42:45.792Z,175
2016-07-12T15:43:46.615Z,175
2016-07-12T15:44:46.606Z,175
2016-07-12T15:45:45.851Z,170
2016-07-12T15:46:45.861Z,170
2016-07-12T15:47:45.953Z,170
2016-07-12T15:48:45.939Z,170
2016-07-12T15:49:45.946Z,165
2016-07-12T15:50:45.950Z,165
2016-07-12T15:51:47.369Z,165
2016-07-12T15:52:49.912Z,165
2016-07-12T15:53:47.533Z,165
2016-07-12T15:54:46.917Z,165
2016-07-12T15:55:46.845Z,165
2016-07-12T15:56:47.025Z,165
2016-07-12T15:57:47.193Z,160
2016-07-12T15:58:48.291Z,160
2016-07-12T15:59:46.665Z,160
2016-07-12T16:00:47.828Z,160
2016-07-12T16:01:46.980Z,160
2016-07-12T16:02:55.099Z,155
2016-07-12T16:03:46.413Z,155
2016-07-12T16:04:47.011Z,155
2016-07-12T16:05:47.432Z,155
2016-07-12T16:06:47.713Z,155
2016-07-12T16:07:46.282Z,155
2016-07-12T16:08:46.241Z,150
2016-07-12T16:09:47.066Z,150
2016-07-12T16:10:48.357Z,150
2016-07-12T16:11:46.596Z,150
2016-07-12T16:12:47.987Z,150
2016-07-12T16:13:46.365Z,150
2016-07-12T16:14:46.293Z,150
2016-07-12T16:15:46.995Z,150
2016-07-12T16:16:46.975Z,150
2016-07-12T16:17:46.255Z,145
2016-07-12T16:18:46.551Z,145
2016-07-12T16:19:47.127Z,145
2016-07-12T16:20:47.128Z,145
2016-07-12T16:21:48.232Z,145
2016-07-12T16:22:46.355Z,145
2016-07-12T16:23:46.475Z,145
2016-07-12T16:24:47.407Z,145
2016-07-12T16:25:46.460Z,145
2016-07-12T16:26:46.582Z,145
2016-07-12T16:27:46.378Z,145
2016-07-12T16:28:46.436Z,140
2016-07-12T16:31:18.570Z,140
2016-07-12T18:12:27.781Z,60
2016-07-12T18:13:30.083Z,55
2016-07-12T18:14:32.939Z,55
2016-07-12T18:15:31.075Z,55
2016-07-12T18:16:29.636Z,55
2016-07-12T18:17:26.786Z,50
2016-07-12T18:18:27.455Z,50
2016-07-12T18:19:28.203Z,50
2016-07-12T18:20:26.754Z,45
2016-07-12T18:21:26.651Z,45
2016-07-12T18:22:26.809Z,45
2016-07-12T18:23:26.861Z,45
2016-07-12T18:24:28.511Z,40
2016-07-12T18:25:26.834Z,40
2016-07-12T18:26:27.393Z,40
2016-07-12T18:27:43.667Z,35
2016-07-12T18:28:27.790Z,35
2016-07-12T18:29:32.978Z,35
2016-07-12T18:30:27.918Z,35
2016-07-12T18:31:28.513Z,30
2016-07-12T18:32:28.911Z,30
2016-07-12T18:33:42.198Z,30
2016-07-12T18:34:27.489Z,30
2016-07-12T19:48:08.109Z,0
2016-07-12T19:49:07.969Z,0
2016-07-12T19:50:06.524Z,0
2016-07-12T19:51:07.305Z,0
2016-07-12T19:52:07.208Z,0
2016-07-12T19:53:06.578Z,0
2016-07-12T19:54:06.510Z,0
2016-07-12T19:55:06.735Z,0
2016-07-12T19:56:06.533Z,0
2016-07-12T19:57:06.528Z,0
2016-07-12T19:58:06.594Z,0
2016-07-12T19:59:07.242Z,0
2016-07-12T20:00:06.612Z,0
2016-07-12T20:01:07.315Z,0
2016-07-12T20:02:06.575Z,0
2016-07-12T20:03:06.604Z,0
2016-07-12T20:04:07.235Z,0
2016-07-12T20:05:06.632Z,0
2016-07-12T20:06:06.651Z,0
2016-07-12T20:07:06.589Z,0
2016-07-12T20:08:06.619Z,0
2016-07-12T20:09:06.536Z,0
2016-07-12T20:10:06.655Z,0
2016-07-12T20:11:06.533Z,0
2016-07-12T20:12:42.622Z,0
2016-07-12T20:13:42.613Z,0
2016-07-12T20:14:42.650Z,0
2016-07-12T20:15:42.675Z,0
2016-07-12T20:16:42.684Z,0
2016-07-12T20:17:42.724Z,0
2016-07-12T20:18:42.647Z,0
2016-07-12T20:19:42.657Z,0
2016-07-12T20:20:42.661Z,0
2016-07-12T20:21:43.415Z,0
2016-07-12T20:22:42.740Z,0
2016-07-12T20:23:44.232Z,0
2016-07-12T20:24:42.749Z,0
2016-07-12T20:25:42.715Z,0
2016-07-12T20:26:42.718Z,0
2016-07-12T20:27:42.748Z,0
2016-07-12T20:28:42.731Z,0
2016-07-12T20:29:43.532Z,0
2016-07-12T20:30:43.526Z,0
2016-07-12T20:31:42.737Z,0
2016-07-12T20:32:42.756Z,0
2016-07-12T20:33:42.761Z,0
2016-07-12T20:34:42.794Z,0
2016-07-12T20:35:42.784Z,0
2016-07-12T20:36:42.793Z,0
2016-07-12T20:37:42.809Z,0
2016-07-12T20:38:44.316Z,0
2016-07-12T20:39:42.791Z,0
2016-07-12T20:40:43.545Z,0
2016-07-12T20:41:42.837Z,0
2016-07-12T20:42:42.814Z,0
2016-07-12T20:43:42.730Z,0
2016-07-12T20:44:43.628Z,0
2016-07-12T20:45:42.856Z,0
2016-07-12T20:46:43.646Z,0
2016-07-12T20:47:42.835Z,0
2016-07-12T20:48:42.959Z,0
2016-07-12T20:49:43.607Z,0
2016-07-12T20:50:42.922Z,0
2016-07-12T20:51:43.618Z,0
2016-07-12T20:52:43.618Z,0
2016-07-12T20:53:42.809Z,0
2016-07-12T20:54:42.877Z,0
2016-07-12T20:55:42.911Z,0
2016-07-12T20:56:42.909Z,0
2016-07-12T20:57:43.656Z,0
2016-07-12T20:58:42.963Z,0
2016-07-12T20:59:42.948Z,0
2016-07-12T21:00:43.648Z,0
2016-07-12T21:01:42.954Z,0
2016-07-12T21:02:42.959Z,0
2016-07-12T21:04:29.241Z,0
2016-07-12T21:05:28.488Z,0
2016-07-12T21:06:29.259Z,0
2016-07-12T21:08:18.601Z,0
2016-07-12T21:09:18.587Z,0
2016-07-12T21:10:18.618Z,0
2016-07-12T21:11:18.653Z,0
2016-07-12T21:12:18.618Z,0
2016-07-12T21:13:19.434Z,0
2016-07-12T21:14:18.611Z,0
2016-07-12T21:15:18.621Z,0
2016-07-12T21:16:18.637Z,0
2016-07-12T21:17:18.636Z,0
2016-07-12T21:18:19.461Z,0
2016-07-12T21:19:19.479Z,0
2016-07-12T21:20:18.726Z,0
2016-07-12T21:21:18.688Z,0
2016-07-12T21:22:18.713Z,0
2016-07-12T21:23:20.204Z,0
2016-07-12T21:24:18.724Z,0
2016-07-12T21:25:18.720Z,0
2016-07-12T21:26:18.723Z,0
2016-07-12T21:27:19.499Z,0
2016-07-12T21:28:18.786Z,0
2016-07-12T21:29:18.763Z,0
2016-07-12T21:30:18.786Z,0
2016-07-12T21:31:18.779Z,0
2016-07-12T21:32:18.793Z,0
2016-07-12T21:33:18.809Z,0
2016-07-12T21:34:19.559Z,0
2016-07-12T21:35:19.001Z,0
2016-07-12T21:36:18.809Z,0
2016-07-12T21:37:20.297Z,0
2016-07-12T21:38:18.779Z,0
2016-07-12T21:39:20.333Z,0
2016-07-12T21:40:18.895Z,0
2016-07-12T21:41:19.532Z,0
2016-07-12T21:42:20.364Z,0
2016-07-12T21:43:18.898Z,0
2016-07-12T21:44:19.566Z,0
2016-07-12T21:45:18.885Z,0
2016-07-12T21:46:29.261Z,0
2016-07-12T21:47:19.657Z,0
2016-07-12T21:48:18.869Z,0
2016-07-12T21:49:19.037Z,0
2016-07-12T21:50:19.645Z,0
2016-07-12T21:51:19.479Z,0
2016-07-12T21:52:19.943Z,0
2016-07-12T21:53:34.791Z,0
2016-07-12T21:54:19.095Z,0
2016-07-12T21:55:18.988Z,0
2016-07-12T21:56:18.952Z,0
2016-07-12T21:57:19.002Z,0
2016-07-12T21:58:19.016Z,0
2016-07-12T21:59:19.032Z,0
2016-07-12T22:00:19.654Z,0
2016-07-12T22:01:19.012Z,0
2016-07-12T22:02:19.779Z,0
2016-07-12T22:03:19.789Z,0
2016-07-12T22:04:19.055Z,0
2016-07-12T22:05:19.019Z,0
2016-07-12T22:06:19.747Z,0
2016-07-12T22:07:19.100Z,0
2016-07-12T22:08:19.068Z,0
2016-07-12T22:09:33.810Z,0
2016-07-12T22:10:20.606Z,0
2016-07-12T22:11:35.819Z,0
2016-07-12T22:12:19.273Z,0
2016-07-12T22:14:20.399Z,0
2016-07-12T22:15:19.141Z,0
2016-07-12T22:16:19.265Z,0
2016-07-12T22:17:19.938Z,0
2016-07-12T22:18:19.190Z,0
2016-07-12T22:19:19.153Z,0
2016-07-12T22:20:19.168Z,0
2016-07-12T22:21:19.947Z,0
2016-07-12T22:22:19.183Z,0
2016-07-12T22:23:19.188Z,0
2016-07-12T22:24:19.176Z,0
2016-07-12T22:25:19.198Z,0
2016-07-12T22:26:19.873Z,0
2016-07-12T22:27:19.941Z,0
2016-07-12T22:28:19.245Z,0
2016-07-12T22:29:22.984Z,0
2016-07-12T22:30:20.008Z,0
2016-07-12T22:31:19.302Z,0
2016-07-12T22:32:20.112Z,0
2016-07-12T22:33:20.160Z,0
2016-07-12T22:34:19.237Z,0
2016-07-12T22:35:19.975Z,0
2016-07-12T22:36:19.893Z,0
2016-07-12T22:37:19.625Z,0
2016-07-12T22:38:19.260Z,0
2016-07-12T22:39:19.353Z,0
2016-07-12T22:40:20.094Z,0
2016-07-12T22:41:19.368Z,0
2016-07-12T22:42:20.058Z,0
2016-07-12T22:43:19.315Z,0
2016-07-12T22:44:20.213Z,0
2016-07-12T22:45:19.240Z,0
2016-07-12T22:46:20.143Z,0
2016-07-12T22:47:20.474Z,0
2016-07-12T22:49:19.360Z,0
2016-07-12T22:50:34.087Z,0
2016-07-12T22:51:19.704Z,0
2016-07-12T22:52:20.631Z,0
2016-07-12T22:53:19.452Z,0
2016-07-12T22:54:19.465Z,0
2016-07-12T22:55:19.561Z,0
2016-07-12T22:56:34.154Z,0
2016-07-12T22:57:19.448Z,0
2016-07-12T22:58:20.230Z,0
2016-07-12T22:59:19.877Z,0
2016-07-12T23:00:20.209Z,0
2016-07-12T23:01:19.449Z,0
2016-07-12T23:02:19.493Z,0
2016-07-12T23:03:19.525Z,0
2016-07-12T23:04:20.168Z,0
2016-07-12T23:05:19.558Z,0
2016-07-12T23:06:20.259Z,0
2016-07-12T23:07:19.520Z,0
2016-07-12T23:08:20.623Z,0
2016-07-12T23:09:37.400Z,0
2016-07-12T23:10:27.938Z,0
2016-07-12T23:11:24.320Z,0
2016-07-12T23:12:19.561Z,0
2016-07-12T23:13:19.734Z,0
2016-07-12T23:14:19.834Z,0
2016-07-12T23:15:19.624Z,0
2016-07-12T23:16:20.567Z,0
2016-07-12T23:17:21.343Z,0
2016-07-12T23:18:20.884Z,0
2016-07-12T23:19:19.624Z,0
2016-07-12T23:20:19.639Z,0
2016-07-12T23:21:19.670Z,0
2016-07-12T23:22:20.188Z,0
2016-07-12T23:23:19.712Z,0
2016-07-12T23:24:19.701Z,0
2016-07-12T23:25:19.699Z,0
2016-07-12T23:26:19.761Z,0
2016-07-12T23:27:19.697Z,0
2016-07-12T23:28:19.709Z,0
2016-07-12T23:29:21.144Z,0
2016-07-12T23:30:20.247Z,0
2016-07-12T23:31:19.780Z,0
2016-07-12T23:32:19.720Z,0
2016-07-12T23:33:35.883Z,0
2016-07-12T23:34:19.719Z,0
2016-07-12T23:35:19.779Z,0
2016-07-12T23:36:51.202Z,0
2016-07-12T23:37:26.055Z,0
2016-07-12T23:38:26.108Z,0
2016-07-12T23:39:26.041Z,0
2016-07-12T23:41:19.808Z,0
2016-07-12T23:42:19.819Z,0
2016-07-12T23:43:20.370Z,0
2016-07-12T23:44:19.905Z,0
2016-07-12T23:45:20.489Z,0
2016-07-12T23:46:31.352Z,0
2016-07-12T23:47:20.582Z,0
2016-07-12T23:48:36.906Z,0
2016-07-12T23:49:20.570Z,0
2016-07-12T23:50:19.851Z,0
2016-07-12T23:51:20.571Z,0
2016-07-12T23:52:20.019Z,0
2016-07-12T23:53:20.009Z,0
2016-07-12T23:54:20.492Z,0
2016-07-12T23:55:19.909Z,0
2016-07-12T23:56:20.849Z,0
2016-07-12T23:57:19.919Z,0
2016-07-12T23:58:19.954Z,0
2016-07-12T23:59:20.680Z,0
